Terminal Aerodrome Forecast
Issued by NWS

Home | Current Version | Previous Version | Text Only | Print | Product List | Glossary On
Versions: 1 2 3 4 5 6 7 8 9 10 11 12 13 14 15 16 17 18 19 20
645
FTUS43 KTOP 302334
TAFFOE
TAF
KFOE 302334Z 3100/3124 17013KT P6SM FEW050
     FM310200 16007KT P6SM SCT250
     FM311000 17005KT 5SM BR BKN020
     FM311600 18007KT P6SM VCTS BKN020CB
     FM312200 20006KT P6SM BKN050=

USA.gov is the U.S. government's official web portal to all federal, state and local government web resources and services.